sensor_id;sensor_type;location;lat;lon;timestamp;temperature;humidity
480;DHT22;226;48.606;9.096;2023-12-07T00:00:00;2.10;59.20
480;DHT22;226;48.606;9.096;2023-12-07T00:02:28;2.10;58.50
480;DHT22;226;48.606;9.096;2023-12-07T00:04:56;3.50;61.50
480;DHT22;226;48.606;9.096;2023-12-07T00:07:24;2.10;59.10
480;DHT22;226;48.606;9.096;2023-12-07T00:09:52;2.20;58.60
480;DHT22;226;48.606;9.096;2023-12-07T00:12:20;2.50;58.60
480;DHT22;226;48.606;9.096;2023-12-07T00:14:49;2.30;58.50
480;DHT22;226;48.606;9.096;2023-12-07T00:17:19;2.30;58.10
480;DHT22;226;48.606;9.096;2023-12-07T00:19:47;2.50;57.30
480;DHT22;226;48.606;9.096;2023-12-07T00:22:20;2.80;55.30
480;DHT22;226;48.606;9.096;2023-12-07T00:24:49;2.20;54.30
480;DHT22;226;48.606;9.096;2023-12-07T00:27:17;2.80;55.40
480;DHT22;226;48.606;9.096;2023-12-07T00:29:45;2.30;56.60
480;DHT22;226;48.606;9.096;2023-12-07T00:32:13;2.60;55.60
480;DHT22;226;48.606;9.096;2023-12-07T00:34:43;2.40;54.00
480;DHT22;226;48.606;9.096;2023-12-07T00:37:11;2.30;53.90
480;DHT22;226;48.606;9.096;2023-12-07T00:39:41;2.40;53.80
480;DHT22;226;48.606;9.096;2023-12-07T00:42:09;2.30;54.50
480;DHT22;226;48.606;9.096;2023-12-07T00:44:39;3.10;54.90
480;DHT22;226;48.606;9.096;2023-12-07T00:47:08;2.50;54.10
480;DHT22;226;48.606;9.096;2023-12-07T00:49:38;2.40;55.30
480;DHT22;226;48.606;9.096;2023-12-07T00:52:09;2.40;55.20
480;DHT22;226;48.606;9.096;2023-12-07T00:54:37;2.40;54.50
480;DHT22;226;48.606;9.096;2023-12-07T00:57:06;2.40;54.70
480;DHT22;226;48.606;9.096;2023-12-07T00:59:34;2.50;54.10
480;DHT22;226;48.606;9.096;2023-12-07T01:02:03;2.50;53.80
480;DHT22;226;48.606;9.096;2023-12-07T01:04:32;2.30;53.60
480;DHT22;226;48.606;9.096;2023-12-07T01:07:00;2.40;53.40
480;DHT22;226;48.606;9.096;2023-12-07T01:09:30;2.40;55.40
480;DHT22;226;48.606;9.096;2023-12-07T01:11:58;2.30;55.00
480;DHT22;226;48.606;9.096;2023-12-07T01:14:26;2.40;56.70
480;DHT22;226;48.606;9.096;2023-12-07T01:16:55;2.70;56.30
480;DHT22;226;48.606;9.096;2023-12-07T01:19:23;2.40;54.50
480;DHT22;226;48.606;9.096;2023-12-07T01:21:52;2.40;54.60
480;DHT22;226;48.606;9.096;2023-12-07T01:24:20;2.40;53.30
480;DHT22;226;48.606;9.096;2023-12-07T01:26:49;2.40;49.90
480;DHT22;226;48.606;9.096;2023-12-07T01:29:18;2.30;51.10
480;DHT22;226;48.606;9.096;2023-12-07T01:31:46;2.50;51.00
480;DHT22;226;48.606;9.096;2023-12-07T01:34:17;3.40;51.70
480;DHT22;226;48.606;9.096;2023-12-07T01:36:46;2.40;51.10
480;DHT22;226;48.606;9.096;2023-12-07T01:39:14;2.40;50.80
480;DHT22;226;48.606;9.096;2023-12-07T01:41:42;2.20;51.30
480;DHT22;226;48.606;9.096;2023-12-07T01:44:12;2.30;51.80
480;DHT22;226;48.606;9.096;2023-12-07T01:46:41;2.40;52.90
480;DHT22;226;48.606;9.096;2023-12-07T01:49:09;2.30;51.80
480;DHT22;226;48.606;9.096;2023-12-07T01:51:38;2.40;53.10
480;DHT22;226;48.606;9.096;2023-12-07T01:54:07;2.40;51.30
480;DHT22;226;48.606;9.096;2023-12-07T01:56:36;2.90;50.30
480;DHT22;226;48.606;9.096;2023-12-07T01:59:04;2.60;50.70
480;DHT22;226;48.606;9.096;2023-12-07T02:01:34;2.80;51.10
480;DHT22;226;48.606;9.096;2023-12-07T02:04:03;2.40;50.70
480;DHT22;226;48.606;9.096;2023-12-07T02:06:31;2.40;49.50
480;DHT22;226;48.606;9.096;2023-12-07T02:08:59;2.30;49.90
480;DHT22;226;48.606;9.096;2023-12-07T02:11:28;2.20;50.50
480;DHT22;226;48.606;9.096;2023-12-07T02:13:56;2.30;49.60
480;DHT22;226;48.606;9.096;2023-12-07T02:16:30;2.10;50.30
480;DHT22;226;48.606;9.096;2023-12-07T02:19:05;2.00;51.00
480;DHT22;226;48.606;9.096;2023-12-07T02:21:40;2.00;51.20
480;DHT22;226;48.606;9.096;2023-12-07T02:24:17;1.90;51.30
480;DHT22;226;48.606;9.096;2023-12-07T02:26:49;1.70;52.40
480;DHT22;226;48.606;9.096;2023-12-07T02:29:18;1.70;53.10
480;DHT22;226;48.606;9.096;2023-12-07T02:31:46;1.80;53.40
480;DHT22;226;48.606;9.096;2023-12-07T02:34:14;2.20;53.70
480;DHT22;226;48.606;9.096;2023-12-07T02:36:43;1.80;53.50
480;DHT22;226;48.606;9.096;2023-12-07T02:39:12;1.60;52.80
480;DHT22;226;48.606;9.096;2023-12-07T02:41:41;1.60;53.50
480;DHT22;226;48.606;9.096;2023-12-07T02:44:12;1.50;52.30
480;DHT22;226;48.606;9.096;2023-12-07T02:46:41;1.50;53.30
480;DHT22;226;48.606;9.096;2023-12-07T02:49:09;1.40;52.70
480;DHT22;226;48.606;9.096;2023-12-07T02:51:38;1.50;53.40
480;DHT22;226;48.606;9.096;2023-12-07T02:54:06;2.00;54.10
480;DHT22;226;48.606;9.096;2023-12-07T02:56:34;1.50;53.10
480;DHT22;226;48.606;9.096;2023-12-07T02:59:02;1.20;53.40
480;DHT22;226;48.606;9.096;2023-12-07T03:01:32;1.30;53.50
480;DHT22;226;48.606;9.096;2023-12-07T03:04:00;2.20;54.50
480;DHT22;226;48.606;9.096;2023-12-07T03:06:28;1.20;52.80
480;DHT22;226;48.606;9.096;2023-12-07T03:08:56;1.20;54.60
480;DHT22;226;48.606;9.096;2023-12-07T03:11:24;1.30;54.80
480;DHT22;226;48.606;9.096;2023-12-07T03:13:52;1.20;54.30
480;DHT22;226;48.606;9.096;2023-12-07T03:16:21;1.20;55.00
480;DHT22;226;48.606;9.096;2023-12-07T03:18:50;1.40;54.70
480;DHT22;226;48.606;9.096;2023-12-07T03:21:18;1.00;56.30
480;DHT22;226;48.606;9.096;2023-12-07T03:23:46;1.20;54.80
480;DHT22;226;48.606;9.096;2023-12-07T03:26:16;1.10;55.70
480;DHT22;226;48.606;9.096;2023-12-07T03:28:44;0.90;55.80
480;DHT22;226;48.606;9.096;2023-12-07T03:31:13;0.90;56.60
480;DHT22;226;48.606;9.096;2023-12-07T03:33:41;0.90;55.90
480;DHT22;226;48.606;9.096;2023-12-07T03:36:12;0.90;56.10
480;DHT22;226;48.606;9.096;2023-12-07T03:38:40;0.90;56.40
480;DHT22;226;48.606;9.096;2023-12-07T03:41:08;0.80;56.40
480;DHT22;226;48.606;9.096;2023-12-07T03:43:36;0.90;57.50
480;DHT22;226;48.606;9.096;2023-12-07T03:46:05;0.80;57.20
480;DHT22;226;48.606;9.096;2023-12-07T03:48:33;1.00;57.20
480;DHT22;226;48.606;9.096;2023-12-07T03:51:03;1.20;57.60
480;DHT22;226;48.606;9.096;2023-12-07T03:53:34;1.00;56.70
480;DHT22;226;48.606;9.096;2023-12-07T03:56:02;1.00;57.00
480;DHT22;226;48.606;9.096;2023-12-07T03:58:30;1.00;57.40
480;DHT22;226;48.606;9.096;2023-12-07T04:00:58;0.90;56.60
480;DHT22;226;48.606;9.096;2023-12-07T04:03:27;0.90;57.10
480;DHT22;226;48.606;9.096;2023-12-07T04:05:55;0.70;57.30
480;DHT22;226;48.606;9.096;2023-12-07T04:08:23;0.80;58.10
480;DHT22;226;48.606;9.096;2023-12-07T04:10:53;1.00;58.60
480;DHT22;226;48.606;9.096;2023-12-07T04:13:21;1.30;57.20
480;DHT22;226;48.606;9.096;2023-12-07T04:15:49;0.90;56.30
480;DHT22;226;48.606;9.096;2023-12-07T04:18:17;1.00;57.20
480;DHT22;226;48.606;9.096;2023-12-07T04:20:46;1.00;56.90
480;DHT22;226;48.606;9.096;2023-12-07T04:23:14;0.90;56.90
480;DHT22;226;48.606;9.096;2023-12-07T04:25:42;0.70;56.40
480;DHT22;226;48.606;9.096;2023-12-07T04:28:11;0.90;57.10
480;DHT22;226;48.606;9.096;2023-12-07T04:30:40;0.80;57.20
480;DHT22;226;48.606;9.096;2023-12-07T04:33:08;1.10;58.10
480;DHT22;226;48.606;9.096;2023-12-07T04:35:36;0.60;58.50
480;DHT22;226;48.606;9.096;2023-12-07T04:38:05;0.60;57.50
480;DHT22;226;48.606;9.096;2023-12-07T04:40:33;0.60;56.20
480;DHT22;226;48.606;9.096;2023-12-07T04:43:01;0.60;57.50
480;DHT22;226;48.606;9.096;2023-12-07T04:45:31;0.50;57.80
480;DHT22;226;48.606;9.096;2023-12-07T04:47:59;0.70;57.40
480;DHT22;226;48.606;9.096;2023-12-07T04:50:28;0.60;56.90
480;DHT22;226;48.606;9.096;2023-12-07T04:52:56;0.90;57.30
480;DHT22;226;48.606;9.096;2023-12-07T04:55:24;0.60;58.30
480;DHT22;226;48.606;9.096;2023-12-07T04:57:53;0.40;57.80
480;DHT22;226;48.606;9.096;2023-12-07T05:00:21;0.40;57.80
480;DHT22;226;48.606;9.096;2023-12-07T05:02:51;0.40;58.30
480;DHT22;226;48.606;9.096;2023-12-07T05:05:19;0.60;60.30
480;DHT22;226;48.606;9.096;2023-12-07T05:07:47;0.30;60.40
480;DHT22;226;48.606;9.096;2023-12-07T05:10:15;0.10;60.30
480;DHT22;226;48.606;9.096;2023-12-07T05:12:44;0.10;60.70
480;DHT22;226;48.606;9.096;2023-12-07T05:15:12;0.00;60.70
480;DHT22;226;48.606;9.096;2023-12-07T05:17:40;0.10;61.00
480;DHT22;226;48.606;9.096;2023-12-07T05:20:10;-0.10;60.50
480;DHT22;226;48.606;9.096;2023-12-07T05:22:39;0.00;60.80
480;DHT22;226;48.606;9.096;2023-12-07T05:25:07;-0.20;60.60
480;DHT22;226;48.606;9.096;2023-12-07T05:27:36;-0.10;60.20
480;DHT22;226;48.606;9.096;2023-12-07T05:30:05;-0.20;60.20
480;DHT22;226;48.606;9.096;2023-12-07T05:32:34;-0.20;60.30
480;DHT22;226;48.606;9.096;2023-12-07T05:35:03;-0.20;60.50
480;DHT22;226;48.606;9.096;2023-12-07T05:37:34;-0.30;60.30
480;DHT22;226;48.606;9.096;2023-12-07T05:40:02;0.60;61.20
480;DHT22;226;48.606;9.096;2023-12-07T05:42:31;-0.20;60.00
480;DHT22;226;48.606;9.096;2023-12-07T05:44:59;-0.30;60.30
480;DHT22;226;48.606;9.096;2023-12-07T05:47:27;-0.40;59.70
480;DHT22;226;48.606;9.096;2023-12-07T05:49:55;-0.50;60.30
480;DHT22;226;48.606;9.096;2023-12-07T05:52:25;-0.40;59.60
480;DHT22;226;48.606;9.096;2023-12-07T05:54:55;-0.50;59.80
480;DHT22;226;48.606;9.096;2023-12-07T05:57:24;-0.60;59.70
480;DHT22;226;48.606;9.096;2023-12-07T05:59:52;-0.70;59.50
480;DHT22;226;48.606;9.096;2023-12-07T06:02:20;-0.40;60.00
480;DHT22;226;48.606;9.096;2023-12-07T06:04:49;-0.60;61.00
480;DHT22;226;48.606;9.096;2023-12-07T06:07:17;-0.90;59.40
480;DHT22;226;48.606;9.096;2023-12-07T06:09:46;-0.20;60.10
480;DHT22;226;48.606;9.096;2023-12-07T06:12:15;-0.70;59.30
480;DHT22;226;48.606;9.096;2023-12-07T06:14:43;-0.50;59.50
480;DHT22;226;48.606;9.096;2023-12-07T06:17:12;-0.80;58.40
480;DHT22;226;48.606;9.096;2023-12-07T06:19:40;-0.50;58.70
480;DHT22;226;48.606;9.096;2023-12-07T06:22:09;-0.80;58.80
480;DHT22;226;48.606;9.096;2023-12-07T06:24:40;-0.70;59.10
480;DHT22;226;48.606;9.096;2023-12-07T06:27:08;-0.40;59.50
480;DHT22;226;48.606;9.096;2023-12-07T06:29:39;-0.60;59.90
480;DHT22;226;48.606;9.096;2023-12-07T06:32:07;-0.30;59.90
480;DHT22;226;48.606;9.096;2023-12-07T06:34:39;-0.80;59.60
480;DHT22;226;48.606;9.096;2023-12-07T06:37:08;-0.60;60.00
480;DHT22;226;48.606;9.096;2023-12-07T06:39:37;1.80;61.70
480;DHT22;226;48.606;9.096;2023-12-07T06:42:06;-0.60;59.50
480;DHT22;226;48.606;9.096;2023-12-07T06:44:35;-0.90;59.80
480;DHT22;226;48.606;9.096;2023-12-07T06:47:05;-1.00;61.10
480;DHT22;226;48.606;9.096;2023-12-07T06:49:33;-0.40;61.60
480;DHT22;226;48.606;9.096;2023-12-07T06:52:16;-1.00;61.00
480;DHT22;226;48.606;9.096;2023-12-07T06:54:44;-0.90;61.10
480;DHT22;226;48.606;9.096;2023-12-07T06:57:12;-1.10;60.10
480;DHT22;226;48.606;9.096;2023-12-07T06:59:40;-1.00;59.80
480;DHT22;226;48.606;9.096;2023-12-07T07:02:10;-1.20;58.70
480;DHT22;226;48.606;9.096;2023-12-07T07:04:38;-0.10;60.90
480;DHT22;226;48.606;9.096;2023-12-07T07:07:06;-1.20;59.10
480;DHT22;226;48.606;9.096;2023-12-07T07:09:34;-1.30;59.00
480;DHT22;226;48.606;9.096;2023-12-07T07:12:03;-1.20;58.40
480;DHT22;226;48.606;9.096;2023-12-07T07:14:32;-1.20;58.70
480;DHT22;226;48.606;9.096;2023-12-07T07:17:01;-1.20;58.90
480;DHT22;226;48.606;9.096;2023-12-07T07:19:32;-0.90;59.10
480;DHT22;226;48.606;9.096;2023-12-07T07:22:00;-1.30;58.10
480;DHT22;226;48.606;9.096;2023-12-07T07:24:29;-1.30;58.40
480;DHT22;226;48.606;9.096;2023-12-07T07:26:57;-1.30;58.80
480;DHT22;226;48.606;9.096;2023-12-07T07:29:25;-1.40;58.70
480;DHT22;226;48.606;9.096;2023-12-07T07:31:56;-1.30;59.80
480;DHT22;226;48.606;9.096;2023-12-07T07:34:24;-1.30;59.00
480;DHT22;226;48.606;9.096;2023-12-07T07:36:54;-1.30;58.80
480;DHT22;226;48.606;9.096;2023-12-07T07:39:22;-1.20;59.20
480;DHT22;226;48.606;9.096;2023-12-07T07:41:50;-1.30;59.60
480;DHT22;226;48.606;9.096;2023-12-07T07:44:19;-1.10;59.10
480;DHT22;226;48.606;9.096;2023-12-07T07:46:47;-0.70;59.30
480;DHT22;226;48.606;9.096;2023-12-07T07:49:15;-1.30;58.60
480;DHT22;226;48.606;9.096;2023-12-07T07:51:43;-1.10;59.70
480;DHT22;226;48.606;9.096;2023-12-07T07:54:13;-0.50;60.10
480;DHT22;226;48.606;9.096;2023-12-07T07:56:43;-1.20;58.90
480;DHT22;226;48.606;9.096;2023-12-07T07:59:11;1.30;59.90
480;DHT22;226;48.606;9.096;2023-12-07T08:01:39;-1.20;57.70
480;DHT22;226;48.606;9.096;2023-12-07T08:04:08;-1.20;59.10
480;DHT22;226;48.606;9.096;2023-12-07T08:06:37;-1.20;58.50
480;DHT22;226;48.606;9.096;2023-12-07T08:11:34;-0.90;56.90
480;DHT22;226;48.606;9.096;2023-12-07T08:14:03;0.80;58.60
480;DHT22;226;48.606;9.096;2023-12-07T08:16:31;-0.90;55.30
480;DHT22;226;48.606;9.096;2023-12-07T08:18:59;0.50;57.30
480;DHT22;226;48.606;9.096;2023-12-07T08:21:28;-1.10;56.50
480;DHT22;226;48.606;9.096;2023-12-07T08:23:57;-1.20;57.40
480;DHT22;226;48.606;9.096;2023-12-07T08:26:25;-0.50;58.60
480;DHT22;226;48.606;9.096;2023-12-07T08:28:56;-1.00;58.20
480;DHT22;226;48.606;9.096;2023-12-07T08:31:25;-1.00;59.50
480;DHT22;226;48.606;9.096;2023-12-07T08:33:53;-0.60;59.00
480;DHT22;226;48.606;9.096;2023-12-07T08:36:22;-0.30;58.40
480;DHT22;226;48.606;9.096;2023-12-07T08:38:51;-0.50;59.00
480;DHT22;226;48.606;9.096;2023-12-07T08:41:19;-0.50;59.80
480;DHT22;226;48.606;9.096;2023-12-07T08:43:47;0.00;59.30
480;DHT22;226;48.606;9.096;2023-12-07T08:46:17;-0.40;59.70
480;DHT22;226;48.606;9.096;2023-12-07T08:48:46;-0.30;59.10
480;DHT22;226;48.606;9.096;2023-12-07T08:51:15;-0.60;59.50
480;DHT22;226;48.606;9.096;2023-12-07T08:53:43;-0.40;60.00
480;DHT22;226;48.606;9.096;2023-12-07T08:56:13;0.10;59.60
480;DHT22;226;48.606;9.096;2023-12-07T08:58:42;-0.50;59.40
480;DHT22;226;48.606;9.096;2023-12-07T09:01:12;-0.20;60.70
480;DHT22;226;48.606;9.096;2023-12-07T09:03:59;-0.30;61.00
480;DHT22;226;48.606;9.096;2023-12-07T09:06:28;0.00;61.60
480;DHT22;226;48.606;9.096;2023-12-07T09:08:57;-0.10;62.10
480;DHT22;226;48.606;9.096;2023-12-07T09:11:25;-0.10;63.80
480;DHT22;226;48.606;9.096;2023-12-07T09:13:53;0.00;62.10
480;DHT22;226;48.606;9.096;2023-12-07T09:16:21;0.10;62.50
480;DHT22;226;48.606;9.096;2023-12-07T09:18:50;0.20;62.80
480;DHT22;226;48.606;9.096;2023-12-07T09:21:20;0.40;62.70
480;DHT22;226;48.606;9.096;2023-12-07T09:23:48;0.70;62.90
480;DHT22;226;48.606;9.096;2023-12-07T09:26:17;0.40;61.80
480;DHT22;226;48.606;9.096;2023-12-07T09:28:46;0.50;61.00
480;DHT22;226;48.606;9.096;2023-12-07T09:31:14;0.80;61.20
480;DHT22;226;48.606;9.096;2023-12-07T09:33:44;0.70;61.80
480;DHT22;226;48.606;9.096;2023-12-07T09:36:17;1.00;61.40
480;DHT22;226;48.606;9.096;2023-12-07T09:38:48;0.70;62.30
480;DHT22;226;48.606;9.096;2023-12-07T09:41:16;0.80;60.90
480;DHT22;226;48.606;9.096;2023-12-07T09:43:45;1.00;60.30
480;DHT22;226;48.606;9.096;2023-12-07T09:46:14;0.90;60.60
480;DHT22;226;48.606;9.096;2023-12-07T09:48:43;1.00;59.50
480;DHT22;226;48.606;9.096;2023-12-07T09:51:13;1.00;57.90
480;DHT22;226;48.606;9.096;2023-12-07T09:53:43;1.50;58.80
480;DHT22;226;48.606;9.096;2023-12-07T09:56:14;1.00;58.30
480;DHT22;226;48.606;9.096;2023-12-07T09:58:43;1.40;58.20
480;DHT22;226;48.606;9.096;2023-12-07T10:01:11;1.10;57.60
480;DHT22;226;48.606;9.096;2023-12-07T10:03:42;1.20;57.50
480;DHT22;226;48.606;9.096;2023-12-07T10:06:11;1.30;56.50
480;DHT22;226;48.606;9.096;2023-12-07T10:08:39;1.40;54.30
480;DHT22;226;48.606;9.096;2023-12-07T10:11:09;1.70;54.60
480;DHT22;226;48.606;9.096;2023-12-07T10:13:40;1.50;53.90
480;DHT22;226;48.606;9.096;2023-12-07T10:16:11;2.40;54.70
480;DHT22;226;48.606;9.096;2023-12-07T10:18:40;1.60;52.70
480;DHT22;226;48.606;9.096;2023-12-07T10:21:11;1.80;52.00
480;DHT22;226;48.606;9.096;2023-12-07T10:23:41;1.90;50.80
480;DHT22;226;48.606;9.096;2023-12-07T10:26:16;1.70;50.20
480;DHT22;226;48.606;9.096;2023-12-07T10:28:49;1.50;49.10
480;DHT22;226;48.606;9.096;2023-12-07T10:31:20;2.10;48.30
480;DHT22;226;48.606;9.096;2023-12-07T10:33:50;1.90;47.50
480;DHT22;226;48.606;9.096;2023-12-07T10:36:19;2.00;47.40
480;DHT22;226;48.606;9.096;2023-12-07T10:38:47;2.30;45.90
480;DHT22;226;48.606;9.096;2023-12-07T10:41:19;2.10;44.40
480;DHT22;226;48.606;9.096;2023-12-07T10:43:51;2.10;43.30
480;DHT22;226;48.606;9.096;2023-12-07T10:46:21;2.20;41.50
480;DHT22;226;48.606;9.096;2023-12-07T10:48:54;2.30;38.20
480;DHT22;226;48.606;9.096;2023-12-07T10:51:28;2.70;27.50
480;DHT22;226;48.606;9.096;2023-12-07T10:54:02;2.60;27.80
480;DHT22;226;48.606;9.096;2023-12-07T10:56:37;2.50;29.20
480;DHT22;226;48.606;9.096;2023-12-07T10:59:10;2.70;26.30
480;DHT22;226;48.606;9.096;2023-12-07T11:01:53;2.80;22.40
480;DHT22;226;48.606;9.096;2023-12-07T11:04:25;2.90;21.80
480;DHT22;226;48.606;9.096;2023-12-07T11:06:56;3.80;25.00
480;DHT22;226;48.606;9.096;2023-12-07T11:09:34;3.00;21.50
480;DHT22;226;48.606;9.096;2023-12-07T11:12:07;3.20;22.70
480;DHT22;226;48.606;9.096;2023-12-07T11:14:39;3.20;22.90
480;DHT22;226;48.606;9.096;2023-12-07T11:17:08;3.40;23.30
480;DHT22;226;48.606;9.096;2023-12-07T11:19:49;3.20;22.50
480;DHT22;226;48.606;9.096;2023-12-07T11:22:17;3.90;20.90
480;DHT22;226;48.606;9.096;2023-12-07T11:24:56;3.50;19.60
480;DHT22;226;48.606;9.096;2023-12-07T11:27:32;3.50;20.10
480;DHT22;226;48.606;9.096;2023-12-07T11:30:02;3.60;20.40
480;DHT22;226;48.606;9.096;2023-12-07T11:32:32;3.70;20.60
480;DHT22;226;48.606;9.096;2023-12-07T11:35:03;3.70;20.90
480;DHT22;226;48.606;9.096;2023-12-07T11:38:00;3.70;20.60
480;DHT22;226;48.606;9.096;2023-12-07T11:40:30;3.90;19.60
480;DHT22;226;48.606;9.096;2023-12-07T11:43:00;3.90;21.00
480;DHT22;226;48.606;9.096;2023-12-07T11:45:47;4.80;22.10
480;DHT22;226;48.606;9.096;2023-12-07T11:48:16;4.00;20.50
480;DHT22;226;48.606;9.096;2023-12-07T11:50:58;4.00;20.60
480;DHT22;226;48.606;9.096;2023-12-07T11:53:28;3.90;19.90
480;DHT22;226;48.606;9.096;2023-12-07T11:55:57;4.10;19.60
480;DHT22;226;48.606;9.096;2023-12-07T11:58:26;4.10;19.10
480;DHT22;226;48.606;9.096;2023-12-07T12:00:57;4.10;19.40
480;DHT22;226;48.606;9.096;2023-12-07T12:03:25;4.20;18.60
480;DHT22;226;48.606;9.096;2023-12-07T12:05:54;4.30;15.00
480;DHT22;226;48.606;9.096;2023-12-07T12:08:23;4.40;16.60
480;DHT22;226;48.606;9.096;2023-12-07T12:10:52;4.50;14.30
480;DHT22;226;48.606;9.096;2023-12-07T12:13:26;4.40;13.50
480;DHT22;226;48.606;9.096;2023-12-07T12:15:56;4.40;13.90
480;DHT22;226;48.606;9.096;2023-12-07T12:18:30;4.40;14.40
480;DHT22;226;48.606;9.096;2023-12-07T12:21:00;4.50;14.10
480;DHT22;226;48.606;9.096;2023-12-07T12:23:28;4.50;15.20
480;DHT22;226;48.606;9.096;2023-12-07T12:25:57;4.50;15.60
480;DHT22;226;48.606;9.096;2023-12-07T12:28:27;4.50;16.10
480;DHT22;226;48.606;9.096;2023-12-07T12:30:57;4.50;16.60
480;DHT22;226;48.606;9.096;2023-12-07T12:33:26;5.00;16.50
480;DHT22;226;48.606;9.096;2023-12-07T12:36:03;4.70;16.70
480;DHT22;226;48.606;9.096;2023-12-07T12:38:33;4.70;17.10
480;DHT22;226;48.606;9.096;2023-12-07T12:41:10;5.30;17.60
480;DHT22;226;48.606;9.096;2023-12-07T12:43:38;4.90;17.00
480;DHT22;226;48.606;9.096;2023-12-07T12:46:09;5.30;17.90
480;DHT22;226;48.606;9.096;2023-12-07T12:48:52;4.60;16.60
480;DHT22;226;48.606;9.096;2023-12-07T12:51:24;4.70;16.70
480;DHT22;226;48.606;9.096;2023-12-07T12:53:53;4.70;15.50
480;DHT22;226;48.606;9.096;2023-12-07T12:56:22;4.70;14.30
480;DHT22;226;48.606;9.096;2023-12-07T12:58:51;5.00;14.40
480;DHT22;226;48.606;9.096;2023-12-07T13:01:24;4.70;14.20
480;DHT22;226;48.606;9.096;2023-12-07T13:03:53;5.40;15.30
480;DHT22;226;48.606;9.096;2023-12-07T13:06:21;5.40;16.30
480;DHT22;226;48.606;9.096;2023-12-07T13:08:52;5.50;15.70
480;DHT22;226;48.606;9.096;2023-12-07T13:11:21;5.10;16.80
480;DHT22;226;48.606;9.096;2023-12-07T13:13:49;4.80;15.90
480;DHT22;226;48.606;9.096;2023-12-07T13:16:18;5.20;16.30
480;DHT22;226;48.606;9.096;2023-12-07T13:18:49;4.80;14.50
480;DHT22;226;48.606;9.096;2023-12-07T13:21:18;4.90;13.10
480;DHT22;226;48.606;9.096;2023-12-07T13:23:47;4.80;12.40
480;DHT22;226;48.606;9.096;2023-12-07T13:26:15;4.80;10.90
480;DHT22;226;48.606;9.096;2023-12-07T13:28:43;4.80;9.60
480;DHT22;226;48.606;9.096;2023-12-07T13:31:11;4.80;10.50
480;DHT22;226;48.606;9.096;2023-12-07T13:33:40;4.80;10.60
480;DHT22;226;48.606;9.096;2023-12-07T13:36:22;4.90;12.20
480;DHT22;226;48.606;9.096;2023-12-07T13:38:52;5.00;12.40
480;DHT22;226;48.606;9.096;2023-12-07T13:41:21;5.00;10.70
480;DHT22;226;48.606;9.096;2023-12-07T13:43:49;5.20;9.20
480;DHT22;226;48.606;9.096;2023-12-07T13:46:18;5.20;9.80
480;DHT22;226;48.606;9.096;2023-12-07T13:48:47;5.30;9.00
480;DHT22;226;48.606;9.096;2023-12-07T13:51:16;5.40;9.10
480;DHT22;226;48.606;9.096;2023-12-07T13:53:46;5.30;9.50
480;DHT22;226;48.606;9.096;2023-12-07T13:56:15;5.30;10.70
480;DHT22;226;48.606;9.096;2023-12-07T13:58:44;5.20;9.00
480;DHT22;226;48.606;9.096;2023-12-07T14:01:12;5.40;8.90
480;DHT22;226;48.606;9.096;2023-12-07T14:03:41;5.40;8.90
480;DHT22;226;48.606;9.096;2023-12-07T14:06:09;5.10;7.80
480;DHT22;226;48.606;9.096;2023-12-07T14:08:52;5.10;8.30
480;DHT22;226;48.606;9.096;2023-12-07T14:11:20;5.10;8.90
480;DHT22;226;48.606;9.096;2023-12-07T14:13:48;5.40;8.20
480;DHT22;226;48.606;9.096;2023-12-07T14:16:20;4.80;9.20
480;DHT22;226;48.606;9.096;2023-12-07T14:19:08;5.00;7.90
480;DHT22;226;48.606;9.096;2023-12-07T14:21:41;4.80;8.50
480;DHT22;226;48.606;9.096;2023-12-07T14:24:23;4.90;7.80
480;DHT22;226;48.606;9.096;2023-12-07T14:26:52;5.40;9.80
480;DHT22;226;48.606;9.096;2023-12-07T14:29:21;4.80;9.80
480;DHT22;226;48.606;9.096;2023-12-07T14:31:53;4.80;10.40
480;DHT22;226;48.606;9.096;2023-12-07T14:34:22;4.80;10.80
480;DHT22;226;48.606;9.096;2023-12-07T14:37:01;5.00;11.50
480;DHT22;226;48.606;9.096;2023-12-07T14:39:34;5.00;12.00
480;DHT22;226;48.606;9.096;2023-12-07T14:42:03;4.70;10.30
480;DHT22;226;48.606;9.096;2023-12-07T14:44:33;4.70;9.00
480;DHT22;226;48.606;9.096;2023-12-07T14:47:01;4.60;10.20
480;DHT22;226;48.606;9.096;2023-12-07T14:49:29;4.90;11.90
480;DHT22;226;48.606;9.096;2023-12-07T14:51:58;5.30;9.60
480;DHT22;226;48.606;9.096;2023-12-07T14:54:27;4.70;10.20
480;DHT22;226;48.606;9.096;2023-12-07T14:56:59;4.90;12.50
480;DHT22;226;48.606;9.096;2023-12-07T14:59:28;4.80;13.30
480;DHT22;226;48.606;9.096;2023-12-07T15:01:57;4.40;13.60
480;DHT22;226;48.606;9.096;2023-12-07T15:04:25;4.40;14.30
480;DHT22;226;48.606;9.096;2023-12-07T15:07:00;4.60;14.80
480;DHT22;226;48.606;9.096;2023-12-07T15:09:30;4.30;12.10
480;DHT22;226;48.606;9.096;2023-12-07T15:12:00;4.30;13.70
480;DHT22;226;48.606;9.096;2023-12-07T15:14:28;5.00;14.50
480;DHT22;226;48.606;9.096;2023-12-07T15:17:06;3.90;15.10
480;DHT22;226;48.606;9.096;2023-12-07T15:19:36;3.90;13.00
480;DHT22;226;48.606;9.096;2023-12-07T15:22:05;3.90;12.80
480;DHT22;226;48.606;9.096;2023-12-07T15:24:35;4.20;14.80
480;DHT22;226;48.606;9.096;2023-12-07T15:27:07;3.70;15.10
480;DHT22;226;48.606;9.096;2023-12-07T15:29:36;5.60;15.60
480;DHT22;226;48.606;9.096;2023-12-07T15:32:06;3.60;14.70
480;DHT22;226;48.606;9.096;2023-12-07T15:34:34;3.60;15.50
480;DHT22;226;48.606;9.096;2023-12-07T15:37:07;3.60;15.90
480;DHT22;226;48.606;9.096;2023-12-07T15:39:37;3.50;16.40
480;DHT22;226;48.606;9.096;2023-12-07T15:42:07;3.70;16.60
480;DHT22;226;48.606;9.096;2023-12-07T15:44:36;3.20;17.00
480;DHT22;226;48.606;9.096;2023-12-07T15:47:04;3.20;18.40
480;DHT22;226;48.606;9.096;2023-12-07T15:49:33;2.80;19.50
480;DHT22;226;48.606;9.096;2023-12-07T15:52:01;2.50;20.10
480;DHT22;226;48.606;9.096;2023-12-07T15:54:30;2.30;21.00
480;DHT22;226;48.606;9.096;2023-12-07T15:57:08;2.20;22.00
480;DHT22;226;48.606;9.096;2023-12-07T15:59:38;2.70;23.80
480;DHT22;226;48.606;9.096;2023-12-07T16:02:06;2.20;24.10
480;DHT22;226;48.606;9.096;2023-12-07T16:04:35;2.20;24.20
480;DHT22;226;48.606;9.096;2023-12-07T16:07:05;2.20;23.80
480;DHT22;226;48.606;9.096;2023-12-07T16:09:37;2.00;23.00
480;DHT22;226;48.606;9.096;2023-12-07T16:12:07;1.80;24.20
480;DHT22;226;48.606;9.096;2023-12-07T16:14:36;1.80;24.90
480;DHT22;226;48.606;9.096;2023-12-07T16:17:05;1.60;24.60
480;DHT22;226;48.606;9.096;2023-12-07T16:19:34;1.50;24.00
480;DHT22;226;48.606;9.096;2023-12-07T16:22:03;1.30;25.60
480;DHT22;226;48.606;9.096;2023-12-07T16:24:33;1.30;27.00
480;DHT22;226;48.606;9.096;2023-12-07T16:27:02;1.50;27.50
480;DHT22;226;48.606;9.096;2023-12-07T16:29:35;1.40;27.70
480;DHT22;226;48.606;9.096;2023-12-07T16:32:05;1.30;27.80
480;DHT22;226;48.606;9.096;2023-12-07T16:34:33;1.30;26.80
480;DHT22;226;48.606;9.096;2023-12-07T16:37:02;1.40;27.30
480;DHT22;226;48.606;9.096;2023-12-07T16:39:31;1.40;28.10
480;DHT22;226;48.606;9.096;2023-12-07T16:41:59;1.30;27.40
480;DHT22;226;48.606;9.096;2023-12-07T16:44:30;1.90;27.90
480;DHT22;226;48.606;9.096;2023-12-07T16:47:00;1.20;27.90
480;DHT22;226;48.606;9.096;2023-12-07T16:49:28;1.10;28.70
480;DHT22;226;48.606;9.096;2023-12-07T16:51:56;2.10;29.30
480;DHT22;226;48.606;9.096;2023-12-07T16:54:26;1.10;29.00
480;DHT22;226;48.606;9.096;2023-12-07T16:56:55;1.10;29.30
480;DHT22;226;48.606;9.096;2023-12-07T16:59:23;1.00;29.90
480;DHT22;226;48.606;9.096;2023-12-07T17:01:51;1.00;30.00
480;DHT22;226;48.606;9.096;2023-12-07T17:04:21;1.20;30.00
480;DHT22;226;48.606;9.096;2023-12-07T17:06:49;1.20;30.60